Time;durP1;ratioP1;P1;durP2;ratioP2;P2;SDS_P1;SDS_P2;PMS_P1;PMS_P2;Temp;Humidity;BMP_temperature;BMP_pressure;BME280_temperature;BME280_humidity;BME280_pressure;Samples;Min_cycle;Max_cycle;Signal;HPM_P1;HPM_P2
2022/09/16 00:00:26;;;;;;;3.67;1.20;;;12.10;99.90;;;;;;5108157;28;20695;-72
2022/09/16 00:02:54;;;;;;;3.33;1.10;;;12.00;99.90;;;;;;5101185;28;20205;-72
2022/09/16 00:05:21;;;;;;;1.93;0.87;;;12.00;99.90;;;;;;5118153;27;20317;-72
2022/09/16 00:07:48;;;;;;;2.47;1.17;;;12.00;99.90;;;;;;5110390;27;20232;-72
2022/09/16 00:10:15;;;;;;;3.60;1.10;;;11.90;99.90;;;;;;5131880;27;20228;-72
2022/09/16 00:12:42;;;;;;;3.17;1.20;;;11.90;99.90;;;;;;5109379;28;20205;-72
2022/09/16 00:15:10;;;;;;;5.23;1.40;;;11.90;99.90;;;;;;5091965;28;20675;-72
2022/09/16 00:17:39;;;;;;;2.63;1.47;;;11.80;99.90;;;;;;5105273;28;20201;-72
2022/09/16 00:20:09;;;;;;;4.10;1.97;;;11.80;99.90;;;;;;5131034;27;20231;-71
2022/09/16 00:22:36;;;;;;;3.83;2.00;;;11.80;99.90;;;;;;5109931;28;20211;-71
2022/09/16 00:25:03;;;;;;;3.50;2.30;;;11.90;99.90;;;;;;5118872;27;20209;-72
2022/09/16 00:27:30;;;;;;;4.17;2.47;;;11.90;99.90;;;;;;5124998;27;20249;-72
2022/09/16 00:29:57;;;;;;;5.40;2.50;;;11.90;99.90;;;;;;5113891;27;20236;-72
2022/09/16 00:32:24;;;;;;;7.87;2.77;;;11.90;99.90;;;;;;5122735;27;20245;-72
2022/09/16 00:34:52;;;;;;;3.77;2.60;;;11.90;99.90;;;;;;5104527;27;20256;-72
2022/09/16 00:37:20;;;;;;;4.63;2.70;;;11.90;99.90;;;;;;5112369;28;20240;-72
2022/09/16 00:39:48;;;;;;;3.97;2.83;;;11.90;99.90;;;;;;5110744;28;20237;-72
2022/09/16 00:42:16;;;;;;;6.70;3.00;;;11.90;99.90;;;;;;5112357;28;20192;-72
2022/09/16 00:44:55;;;;;;;10.60;3.17;;;11.90;99.90;;;;;;5127865;27;20305;-72
2022/09/16 00:47:26;;;;;;;4.43;2.83;;;11.90;99.90;;;;;;5113804;27;20815;-72
2022/09/16 00:49:58;;;;;;;3.43;2.60;;;11.80;99.90;;;;;;5123402;27;20197;-71
2022/09/16 00:52:27;;;;;;;6.17;3.33;;;11.80;99.90;;;;;;5109551;27;20208;-72
2022/09/16 00:54:54;;;;;;;6.80;2.90;;;11.80;99.90;;;;;;5111178;28;20224;-72
2022/09/16 00:57:21;;;;;;;3.77;2.40;;;11.80;99.90;;;;;;5113346;27;20279;-72
2022/09/16 00:59:53;;;;;;;4.23;2.90;;;11.80;99.90;;;;;;5132277;27;20236;-71
2022/09/16 01:02:21;;;;;;;7.20;2.53;;;11.80;99.90;;;;;;5107947;28;20287;-72
2022/09/16 01:04:53;;;;;;;4.00;2.20;;;11.80;99.90;;;;;;5131839;28;20185;-72
2022/09/16 01:07:30;;;;;;;7.30;2.70;;;11.70;99.90;;;;;;5112814;28;20199;-72
2022/09/16 01:09:57;;;;;;;5.23;2.90;;;11.70;99.90;;;;;;5103981;28;20559;-71
2022/09/16 01:12:25;;;;;;;2.40;2.20;;;11.70;99.90;;;;;;5111258;28;20805;-72
2022/09/16 01:14:55;;;;;;;4.33;2.57;;;11.80;99.90;;;;;;5111334;28;20252;-71
2022/09/16 01:17:33;;;;;;;4.63;2.83;;;11.70;99.90;;;;;;5102371;28;20208;-71
2022/09/16 01:20:34;;;;;;;4.30;2.40;;;11.70;99.90;;;;;;5110668;28;20232;-72
2022/09/16 01:23:36;;;;;;;5.60;2.93;;;11.70;99.90;;;;;;5112237;28;20238;-71
2022/09/16 01:26:19;;;;;;;7.53;2.60;;;11.70;99.90;;;;;;5113538;28;20238;-72
2022/09/16 01:29:07;;;;;;;6.53;2.90;;;11.60;99.90;;;;;;5090672;28;20634;-71
2022/09/16 01:31:42;;;;;;;3.40;2.23;;;11.70;99.90;;;;;;5091261;28;20329;-71
2022/09/16 01:34:19;;;;;;;7.93;3.20;;;11.60;99.90;;;;;;5102923;28;20315;-72
2022/09/16 01:36:53;;;;;;;4.00;2.37;;;11.60;99.90;;;;;;5121605;27;20269;-71
2022/09/16 01:39:30;;;;;;;7.07;3.00;;;11.70;99.90;;;;;;5108045;27;20240;-72
2022/09/16 01:42:09;;;;;;;5.90;2.57;;;11.70;99.90;;;;;;5103277;27;20200;-71
2022/09/16 01:44:44;;;;;;;4.70;2.23;;;11.70;99.90;;;;;;5092446;28;20768;-71
2022/09/16 01:47:20;;;;;;;4.40;2.00;;;11.80;99.90;;;;;;5084373;28;20728;-71
2022/09/16 01:49:58;;;;;;;4.10;2.23;;;11.80;99.90;;;;;;5088845;27;20712;-72
2022/09/16 01:52:34;;;;;;;3.80;2.10;;;11.90;99.90;;;;;;5103401;28;20270;-71
2022/09/16 01:55:03;;;;;;;9.03;2.20;;;11.90;99.90;;;;;;5127773;27;20306;-71
2022/09/16 01:57:37;;;;;;;5.80;2.40;;;11.90;99.90;;;;;;5118774;27;20260;-71
2022/09/16 02:00:09;;;;;;;6.20;2.87;;;12.00;99.90;;;;;;5113392;27;20201;-71
2022/09/16 02:02:43;;;;;;;5.17;2.20;;;12.00;99.90;;;;;;5100450;27;20208;-71
2022/09/16 02:05:14;;;;;;;3.10;2.10;;;12.00;99.90;;;;;;5119244;27;21923;-71
2022/09/16 02:07:47;;;;;;;4.77;2.17;;;12.00;99.90;;;;;;5111718;28;20292;-71
2022/09/16 02:10:20;;;;;;;3.97;2.20;;;12.00;99.90;;;;;;5121438;27;20312;-71
2022/09/16 02:12:49;;;;;;;3.87;2.30;;;12.10;99.90;;;;;;5122908;27;20281;-72
2022/09/16 02:15:21;;;;;;;4.40;2.10;;;12.10;99.90;;;;;;5110915;27;20731;-71
2022/09/16 02:17:54;;;;;;;4.87;1.90;;;12.10;99.90;;;;;;5111280;27;20552;-71
2022/09/16 02:20:25;;;;;;;2.50;1.70;;;12.10;99.90;;;;;;5121481;27;20717;-70
2022/09/16 02:22:57;;;;;;;2.80;2.17;;;12.10;99.90;;;;;;5106078;28;20259;-71
2022/09/16 02:25:26;;;;;;;5.23;2.10;;;12.10;99.90;;;;;;5120915;27;20201;-71
2022/09/16 02:27:54;;;;;;;3.37;1.60;;;12.10;99.90;;;;;;5111453;28;20205;-71
2022/09/16 02:30:23;;;;;;;5.03;1.67;;;12.10;99.90;;;;;;5114140;28;20639;-71
2022/09/16 02:32:56;;;;;;;3.67;1.60;;;12.10;99.90;;;;;;5113623;28;20197;-71
2022/09/16 02:35:23;;;;;;;2.53;1.63;;;12.10;99.90;;;;;;5111934;28;20699;-71
2022/09/16 02:37:55;;;;;;;5.17;1.80;;;12.10;99.90;;;;;;5107723;28;20258;-71
2022/09/16 02:40:27;;;;;;;8.17;1.87;;;12.10;99.90;;;;;;5111393;28;20225;-71
2022/09/16 02:42:54;;;;;;;4.33;1.80;;;12.10;99.90;;;;;;5124663;27;20232;-71
2022/09/16 02:45:26;;;;;;;2.73;2.00;;;12.10;99.90;;;;;;5133581;27;20252;-71
2022/09/16 02:48:00;;;;;;;5.43;2.17;;;12.00;99.90;;;;;;5112021;27;20613;-71
2022/09/16 02:50:40;;;;;;;5.10;2.53;;;12.00;99.90;;;;;;5104875;27;20702;-71
2022/09/16 02:53:15;;;;;;;5.10;2.23;;;12.00;99.90;;;;;;5082722;28;20201;-71
2022/09/16 02:55:50;;;;;;;2.67;2.13;;;11.90;99.90;;;;;;5082361;28;20248;-71
2022/09/16 02:58:17;;;;;;;5.37;2.57;;;11.90;99.90;;;;;;5112147;27;20196;-71
2022/09/16 03:00:47;;;;;;;4.63;2.40;;;11.90;99.90;;;;;;5109437;27;20676;-71
2022/09/16 03:03:17;;;;;;;6.53;2.57;;;12.00;99.90;;;;;;5110357;27;20287;-71
2022/09/16 03:06:15;;;;;;;4.77;2.23;;;11.90;99.90;;;;;;5128190;27;20279;-71
2022/09/16 03:08:44;;;;;;;5.77;2.77;;;12.00;99.90;;;;;;5112120;27;20205;-71
2022/09/16 03:11:23;;;;;;;5.47;3.03;;;11.90;99.90;;;;;;5129446;27;20200;-71
2022/09/16 03:14:01;;;;;;;7.00;2.90;;;11.90;99.90;;;;;;5116854;27;20225;-71
2022/09/16 03:16:37;;;;;;;3.83;2.60;;;11.90;99.90;;;;;;5094480;28;20682;-71
2022/09/16 03:19:16;;;;;;;5.77;2.80;;;11.90;99.90;;;;;;5113681;28;20197;-71
2022/09/16 03:21:54;;;;;;;6.27;2.87;;;11.90;99.90;;;;;;5087581;27;20628;-71
2022/09/16 03:24:31;;;;;;;6.33;3.03;;;11.80;99.90;;;;;;5092256;28;20662;-71
2022/09/16 03:27:05;;;;;;;6.93;3.00;;;11.80;99.90;;;;;;5112667;28;20639;-71
2022/09/16 03:29:37;;;;;;;4.97;2.50;;;11.80;99.90;;;;;;5078415;28;20214;-71
2022/09/16 03:32:14;;;;;;;4.27;2.63;;;11.90;99.90;;;;;;5119882;27;20200;-72
2022/09/16 03:34:46;;;;;;;3.37;2.50;;;11.90;99.90;;;;;;5114183;27;20251;-71
2022/09/16 03:37:16;;;;;;;3.47;2.87;;;11.90;99.90;;;;;;5114962;27;20213;-71
2022/09/16 03:39:49;;;;;;;4.97;2.50;;;12.00;99.90;;;;;;5112311;28;20228;-71
2022/09/16 03:42:17;;;;;;;4.10;2.37;;;11.90;99.90;;;;;;5112658;28;20197;-71
2022/09/16 03:44:44;;;;;;;3.40;2.10;;;12.00;99.90;;;;;;5102061;28;20280;-72
2022/09/16 03:47:11;;;;;;;4.23;2.40;;;12.00;99.90;;;;;;5110824;27;20224;-71
2022/09/16 03:49:38;;;;;;;7.73;2.83;;;12.00;99.90;;;;;;5119799;27;20698;-71
2022/09/16 03:52:07;;;;;;;4.67;2.77;;;12.00;99.90;;;;;;5123288;27;20606;-71
2022/09/16 03:54:34;;;;;;;6.03;2.50;;;12.10;99.90;;;;;;5128771;27;20753;-71
2022/09/16 03:57:01;;;;;;;5.13;2.50;;;12.10;99.90;;;;;;5111869;27;20225;-71
2022/09/16 03:59:29;;;;;;;5.03;2.87;;;12.10;99.90;;;;;;5112025;28;20228;-71
2022/09/16 04:01:56;;;;;;;3.33;2.50;;;12.10;99.90;;;;;;5112321;27;20761;-71
2022/09/16 04:04:23;;;;;;;4.10;2.70;;;12.10;99.90;;;;;;5128050;27;20207;-71
2022/09/16 04:06:50;;;;;;;6.07;2.80;;;12.20;99.90;;;;;;5110563;27;20249;-71
2022/09/16 04:09:18;;;;;;;8.37;2.90;;;12.20;99.90;;;;;;5112786;27;20224;-71
2022/09/16 04:11:45;;;;;;;5.43;2.70;;;12.20;99.90;;;;;;5107524;28;20239;-71
2022/09/16 04:14:12;;;;;;;5.13;2.60;;;12.20;99.90;;;;;;5112906;28;20236;-71
2022/09/16 04:16:39;;;;;;;6.97;2.40;;;12.20;99.90;;;;;;5102000;27;20802;-71
2022/09/16 04:19:07;;;;;;;8.47;2.87;;;12.20;99.90;;;;;;5111269;28;20728;-71
2022/09/16 04:21:34;;;;;;;5.20;2.97;;;12.30;99.90;;;;;;5101072;28;20810;-71
2022/09/16 04:24:01;;;;;;;7.63;3.13;;;12.30;99.90;;;;;;5123313;27;20231;-71
2022/09/16 04:26:29;;;;;;;6.33;2.67;;;12.30;99.90;;;;;;5131740;27;20847;-71
2022/09/16 04:28:56;;;;;;;9.00;2.70;;;12.30;99.90;;;;;;5117487;27;20549;-71
2022/09/16 04:31:23;;;;;;;3.90;2.90;;;12.30;99.90;;;;;;5095679;28;20656;-71
2022/09/16 04:33:50;;;;;;;5.23;2.90;;;12.30;99.90;;;;;;5111379;28;20647;-71
2022/09/16 04:36:19;;;;;;;6.07;3.33;;;12.30;99.90;;;;;;5111265;27;20228;-71
2022/09/16 04:38:47;;;;;;;7.17;3.10;;;12.30;99.90;;;;;;5118327;27;20291;-71
2022/09/16 04:41:17;;;;;;;6.80;3.80;;;12.30;99.90;;;;;;5129437;27;20662;-71
2022/09/16 04:43:45;;;;;;;4.70;2.90;;;12.30;99.90;;;;;;5109085;28;20239;-71
2022/09/16 04:46:13;;;;;;;5.20;3.13;;;12.30;99.90;;;;;;5122613;27;20228;-71
2022/09/16 04:48:40;;;;;;;5.67;2.80;;;12.30;99.90;;;;;;5099606;28;20292;-71
2022/09/16 04:51:10;;;;;;;4.03;3.13;;;12.20;99.90;;;;;;5109281;27;20209;-71
2022/09/16 04:53:38;;;;;;;7.47;2.97;;;12.20;99.90;;;;;;5103601;28;20213;-71
2022/09/16 04:56:07;;;;;;;5.53;2.70;;;12.20;99.90;;;;;;5100279;28;20233;-71
2022/09/16 04:58:37;;;;;;;4.67;2.77;;;12.20;99.90;;;;;;5107584;28;20334;-71
2022/09/16 05:01:11;;;;;;;3.03;2.57;;;12.20;99.90;;;;;;5108848;28;20602;-71
2022/09/16 05:03:38;;;;;;;4.00;2.67;;;12.20;99.90;;;;;;5112327;28;20211;-71
2022/09/16 05:06:08;;;;;;;6.57;2.60;;;12.20;99.90;;;;;;5110459;28;20252;-73
2022/09/16 05:08:35;;;;;;;5.37;2.30;;;12.20;99.90;;;;;;5120358;27;20638;-73
2022/09/16 05:11:07;;;;;;;7.13;4.10;;;12.20;99.90;;;;;;5131209;27;20200;-71
2022/09/16 05:13:34;;;;;;;8.17;3.33;;;12.20;99.90;;;;;;5139171;27;20251;-71
2022/09/16 05:16:03;;;;;;;4.63;2.40;;;12.20;99.90;;;;;;5130880;27;20306;-71
2022/09/16 05:18:31;;;;;;;2.43;2.20;;;12.20;99.90;;;;;;5121016;27;20196;-71
2022/09/16 05:20:59;;;;;;;2.57;2.30;;;12.20;99.90;;;;;;5114864;27;20642;-71
2022/09/16 05:23:26;;;;;;;5.07;2.20;;;12.30;99.90;;;;;;5111347;27;20284;-70
2022/09/16 05:26:03;;;;;;;6.73;2.43;;;12.30;99.90;;;;;;5105413;27;20292;-70
2022/09/16 05:28:35;;;;;;;3.93;2.40;;;12.30;99.90;;;;;;5115853;27;20200;-70
2022/09/16 05:31:17;;;;;;;2.77;2.40;;;12.30;99.90;;;;;;5102130;27;20284;-71
2022/09/16 05:33:54;;;;;;;5.00;2.53;;;12.30;99.90;;;;;;5112009;27;20204;-70
2022/09/16 05:36:23;;;;;;;5.97;2.50;;;12.30;99.90;;;;;;5105797;27;20232;-71
2022/09/16 05:38:53;;;;;;;4.23;2.60;;;12.30;99.90;;;;;;5111268;27;20296;-70
2022/09/16 05:41:21;;;;;;;7.27;2.50;;;12.40;99.90;;;;;;5110822;27;20201;-70
2022/09/16 05:43:59;;;;;;;5.20;2.70;;;12.40;99.90;;;;;;5103449;27;20241;-71
2022/09/16 05:46:33;;;;;;;3.73;2.47;;;12.40;99.90;;;;;;5091253;27;20705;-71
2022/09/16 05:49:02;;;;;;;4.73;2.63;;;12.40;99.90;;;;;;5106133;27;20207;-71
2022/09/16 05:51:30;;;;;;;2.43;2.20;;;12.40;99.90;;;;;;5107021;27;20209;-70
2022/09/16 05:54:02;;;;;;;4.63;2.40;;;12.40;99.90;;;;;;5115276;27;20337;-71
2022/09/16 05:56:30;;;;;;;5.53;2.77;;;12.50;99.90;;;;;;5104958;27;20344;-71
2022/09/16 05:59:01;;;;;;;4.53;2.57;;;12.40;99.90;;;;;;5108232;27;20241;-71
2022/09/16 06:01:33;;;;;;;6.90;3.07;;;12.40;99.90;;;;;;5107058;27;20229;-71
2022/09/16 06:04:04;;;;;;;4.10;2.63;;;12.40;99.90;;;;;;5107881;27;20295;-71
2022/09/16 06:06:35;;;;;;;5.20;3.23;;;12.50;99.90;;;;;;5108610;27;20201;-71
2022/09/16 06:09:08;;;;;;;3.03;2.23;;;12.50;99.90;;;;;;5110483;27;20257;-71
2022/09/16 06:11:38;;;;;;;5.57;2.80;;;12.60;99.90;;;;;;5104534;27;20226;-71
2022/09/16 06:14:06;;;;;;;4.73;2.43;;;12.70;99.90;;;;;;5114360;27;20805;-70
2022/09/16 06:16:35;;;;;;;3.20;2.47;;;12.70;99.90;;;;;;5102731;28;20229;-71
2022/09/16 06:19:09;;;;;;;5.10;2.80;;;12.70;99.90;;;;;;5104839;28;20534;-71
2022/09/16 06:21:43;;;;;;;5.23;3.23;;;12.70;99.90;;;;;;5109381;27;20197;-71
2022/09/16 06:24:10;;;;;;;6.53;2.83;;;12.70;99.90;;;;;;5106042;28;20722;-73
2022/09/16 06:26:39;;;;;;;4.63;2.57;;;12.70;99.90;;;;;;5100720;27;20206;-73
2022/09/16 06:29:07;;;;;;;6.97;2.90;;;12.80;99.90;;;;;;5105255;28;20209;-73
2022/09/16 06:31:35;;;;;;;8.70;2.80;;;12.80;99.90;;;;;;5107527;27;20197;-73
2022/09/16 06:34:04;;;;;;;4.73;2.50;;;12.80;99.90;;;;;;5102105;27;20200;-73
2022/09/16 06:36:35;;;;;;;7.77;4.43;;;12.80;99.90;;;;;;5104752;27;20235;-73
2022/09/16 06:39:02;;;;;;;5.83;3.10;;;12.80;99.90;;;;;;5105301;28;20297;-73
2022/09/16 06:41:32;;;;;;;5.83;2.60;;;12.90;99.90;;;;;;5110594;27;20201;-73
2022/09/16 06:43:59;;;;;;;3.10;2.60;;;12.90;99.90;;;;;;5109279;27;20511;-73
2022/09/16 06:46:28;;;;;;;4.00;2.50;;;13.00;99.90;;;;;;5097984;27;20205;-73
2022/09/16 06:48:57;;;;;;;2.60;2.40;;;12.90;99.90;;;;;;5103470;28;20201;-73
2022/09/16 06:51:27;;;;;;;4.43;2.33;;;13.10;99.90;;;;;;5109191;27;20217;-73
2022/09/16 06:53:56;;;;;;;2.93;2.30;;;13.20;99.90;;;;;;5110218;27;20278;-73
2022/09/16 06:56:23;;;;;;;2.80;2.07;;;13.30;99.90;;;;;;5103956;27;20246;-73
2022/09/16 06:58:51;;;;;;;4.30;2.17;;;13.40;99.90;;;;;;5100665;28;20208;-73
2022/09/16 07:01:20;;;;;;;3.93;2.10;;;13.50;65.70;;;;;;5101963;28;20212;-73
2022/09/16 07:03:51;;;;;;;2.77;1.93;;;13.50;1.00;;;;;;5099853;27;20204;-73
2022/09/16 07:06:20;;;;;;;6.73;1.87;;;13.60;34.20;;;;;;5100258;28;20212;-73
2022/09/16 07:08:48;;;;;;;4.77;1.50;;;13.60;1.00;;;;;;5102560;27;20597;-73
2022/09/16 07:11:16;;;;;;;1.60;1.50;;;13.70;1.00;;;;;;5102295;28;20204;-73
2022/09/16 07:13:45;;;;;;;2.70;1.90;;;13.60;1.00;;;;;;5103045;27;20209;-73
2022/09/16 07:16:15;;;;;;;3.40;1.73;;;13.60;1.00;;;;;;5110392;27;20221;-73
2022/09/16 07:18:42;;;;;;;2.17;1.77;;;13.60;1.00;;;;;;5097691;28;20197;-73
2022/09/16 07:21:12;;;;;;;2.60;1.60;;;13.50;1.00;;;;;;5110696;27;20555;-73
2022/09/16 07:23:40;;;;;;;4.40;2.00;;;13.50;1.00;;;;;;5102885;28;20198;-73
2022/09/16 07:26:09;;;;;;;3.97;2.30;;;13.50;1.00;;;;;;5101959;27;20631;-73
2022/09/16 07:28:37;;;;;;;3.33;2.20;;;13.50;1.00;;;;;;5102615;28;20198;-73
2022/09/16 07:31:06;;;;;;;3.67;2.20;;;13.60;1.00;;;;;;5099802;28;20214;-73
2022/09/16 07:33:37;;;;;;;4.50;2.03;;;13.60;1.00;;;;;;5108276;27;20200;-73
2022/09/16 07:36:05;;;;;;;6.93;2.27;;;13.70;1.00;;;;;;5104217;28;20222;-73
2022/09/16 07:38:32;;;;;;;4.40;2.10;;;13.60;1.00;;;;;;5101916;27;20214;-73
2022/09/16 07:41:04;;;;;;;5.07;2.73;;;13.60;1.00;;;;;;5100938;27;20201;-73
2022/09/16 07:43:32;;;;;;;3.10;2.17;;;13.60;1.00;;;;;;5103962;27;20200;-73
2022/09/16 07:46:01;;;;;;;3.00;2.10;;;13.70;1.00;;;;;;5098642;28;20202;-73
2022/09/16 07:48:29;;;;;;;3.47;2.00;;;13.60;1.00;;;;;;5101385;27;20215;-73
2022/09/16 07:50:57;;;;;;;5.43;2.10;;;13.60;1.00;;;;;;5098551;27;20574;-73
2022/09/16 07:53:26;;;;;;;5.90;2.17;;;13.70;1.00;;;;;;5105133;27;20196;-71
2022/09/16 07:55:53;;;;;;;4.70;2.27;;;13.80;1.00;;;;;;5095466;28;20231;-71
2022/09/16 07:58:20;;;;;;;4.20;2.20;;;14.00;4.10;;;;;;5115996;27;20204;-71
2022/09/16 08:00:49;;;;;;;3.67;2.00;;;13.90;99.90;;;;;;5106139;27;20631;-71
2022/09/16 08:03:16;;;;;;;3.60;2.00;;;14.30;1.00;;;;;;5105944;27;20204;-71
2022/09/16 08:05:43;;;;;;;3.23;1.83;;;13.90;1.00;;;;;;5108156;27;20213;-72
2022/09/16 08:08:10;;;;;;;4.53;2.10;;;14.00;99.90;;;;;;5104602;27;20192;-72
2022/09/16 08:10:37;;;;;;;5.40;2.00;;;14.00;99.90;;;;;;5101240;28;20201;-71
2022/09/16 08:13:04;;;;;;;4.63;2.23;;;14.10;99.90;;;;;;5097019;27;20201;-71
2022/09/16 08:15:31;;;;;;;3.07;1.77;;;14.20;1.00;;;;;;5101516;28;20202;-71
2022/09/16 08:17:59;;;;;;;5.33;1.57;;;14.20;1.00;;;;;;5105785;27;20213;-71
2022/09/16 08:20:27;;;;;;;5.70;2.47;;;14.20;99.90;;;;;;5101706;28;20204;-71
2022/09/16 08:22:53;;;;;;;4.97;2.00;;;14.30;91.40;;;;;;5099346;28;20205;-72
2022/09/16 08:25:20;;;;;;;5.73;1.87;;;14.30;53.10;;;;;;5100622;28;20205;-72
2022/09/16 08:27:47;;;;;;;3.90;1.37;;;14.40;1.00;;;;;;5098195;27;20207;-72
2022/09/16 08:30:14;;;;;;;4.17;2.10;;;14.50;1.00;;;;;;5110612;28;20226;-72
2022/09/16 08:32:41;;;;;;;2.50;1.43;;;14.60;1.00;;;;;;5096687;28;20204;-71
2022/09/16 08:35:09;;;;;;;5.17;1.77;;;14.80;99.90;;;;;;5101224;28;20204;-71
2022/09/16 08:37:36;;;;;;;3.10;1.30;;;14.80;1.00;;;;;;5099740;28;20703;-72
2022/09/16 08:40:04;;;;;;;5.13;1.50;;;15.10;80.50;;;;;;5105803;28;20640;-72
2022/09/16 08:42:46;;;;;;;7.40;1.57;;;15.20;1.00;;;;;;5105688;27;20577;-72
2022/09/16 08:45:21;;;;;;;2.67;1.50;;;15.20;99.90;;;;;;5117595;27;20554;-72
2022/09/16 08:48:06;;;;;;;4.40;1.30;;;15.20;99.90;;;;;;5100309;28;20188;-72
2022/09/16 08:50:39;;;;;;;3.70;1.20;;;15.30;1.00;;;;;;5108464;28;20201;-72
2022/09/16 08:53:12;;;;;;;7.03;1.63;;;15.40;99.90;;;;;;5130553;27;20243;-72
2022/09/16 08:55:45;;;;;;;3.38;1.10;;;15.50;99.90;;;;;;5121230;27;20608;-72
2022/09/16 08:58:16;;;;;;;3.92;0.93;;;15.50;1.00;;;;;;5112458;28;20225;-71
2022/09/16 09:00:44;;;;;;;5.83;1.37;;;15.50;99.90;;;;;;5108004;28;20227;-72
2022/09/16 09:03:18;;;;;;;5.78;1.35;;;15.70;87.00;;;;;;5101050;28;20246;-72
2022/09/16 09:05:51;;;;;;;4.20;1.15;;;16.20;1.00;;;;;;5118572;28;20196;-72
2022/09/16 09:08:39;;;;;;;6.67;1.30;;;16.10;1.00;;;;;;5114074;28;20290;-72
2022/09/16 09:11:14;;;;;;;6.63;1.20;;;15.90;99.90;;;;;;5104047;28;20216;-72
2022/09/16 09:14:04;;;;;;;3.92;1.13;;;16.10;1.00;;;;;;5094679;28;20189;-72
2022/09/16 09:16:39;;;;;;;8.15;1.70;;;15.80;1.00;;;;;;5103029;28;20224;-72
2022/09/16 09:19:23;;;;;;;4.55;0.85;;;16.40;1.00;;;;;;5107241;28;20235;-72
2022/09/16 09:22:03;;;;;;;3.03;1.65;;;17.00;99.90;;;;;;5092433;28;20304;-72
2022/09/16 09:24:44;;;;;;;4.38;0.80;;;16.50;99.90;;;;;;5094291;28;20212;-72
2022/09/16 09:27:15;;;;;;;3.70;1.38;;;16.90;99.90;;;;;;5087402;28;20206;-72
2022/09/16 09:30:08;;;;;;;8.98;1.55;;;16.90;46.60;;;;;;5109862;28;20189;-71
2022/09/16 09:32:47;;;;;;;6.38;1.25;;;17.10;1.00;;;;;;5097604;28;20237;-72
2022/09/16 09:35:28;;;;;;;2.47;0.95;;;17.20;1.00;;;;;;5092165;28;20205;-72
2022/09/16 09:38:20;;;;;;;5.28;1.30;;;16.80;1.00;;;;;;5112574;28;20228;-72
2022/09/16 09:40:53;;;;;;;6.45;1.08;;;16.70;1.00;;;;;;5112043;28;20201;-71
2022/09/16 09:43:23;;;;;;;7.18;1.38;;;16.50;1.00;;;;;;5085134;28;20245;-71
2022/09/16 09:45:58;;;;;;;2.47;0.93;;;16.20;1.00;;;;;;5099651;28;20209;-72
2022/09/16 09:48:30;;;;;;;4.93;1.40;;;16.20;1.00;;;;;;5116126;27;20206;-71
2022/09/16 09:51:01;;;;;;;5.38;1.30;;;16.10;1.00;;;;;;5103474;27;20204;-72
2022/09/16 09:53:34;;;;;;;4.45;1.27;;;16.10;1.00;;;;;;5102104;27;20632;-72
2022/09/16 09:56:11;;;;;;;4.45;1.42;;;16.10;1.00;;;;;;5115046;27;20665;-71
2022/09/16 09:58:40;;;;;;;3.95;0.68;;;16.40;99.90;;;;;;5127625;27;20634;-71
2022/09/16 10:01:10;;;;;;;5.93;1.13;;;16.50;1.00;;;;;;5128406;27;20208;-72
2022/09/16 10:03:37;;;;;;;2.97;1.10;;;16.80;1.00;;;;;;5116501;28;20193;-72
2022/09/16 10:06:05;;;;;;;5.00;1.05;;;17.10;99.90;;;;;;5109735;28;20206;-71
2022/09/16 10:08:41;;;;;;;7.25;1.60;;;16.80;99.90;;;;;;5096039;28;20198;-71
2022/09/16 10:11:16;;;;;;;5.25;1.27;;;17.40;99.90;;;;;;5077415;28;20225;-71
2022/09/16 10:13:49;;;;;;;2.58;0.88;;;17.00;99.90;;;;;;5077652;28;20196;-71
2022/09/16 10:16:19;;;;;;;6.78;1.70;;;16.60;99.90;;;;;;5095970;28;20243;-71
2022/09/16 10:18:56;;;;;;;3.22;0.98;;;17.10;99.90;;;;;;5095897;28;20301;-71
2022/09/16 10:21:23;;;;;;;5.25;1.80;;;17.70;1.00;;;;;;5094787;28;20205;-71
2022/09/16 10:23:57;;;;;;;5.60;1.00;;;17.90;1.00;;;;;;5095540;28;20609;-71
2022/09/16 10:26:25;;;;;;;4.35;1.05;;;18.10;1.00;;;;;;5095090;28;20197;-71
2022/09/16 10:29:00;;;;;;;5.40;1.05;;;18.30;1.00;;;;;;5095394;28;20205;-71
2022/09/16 10:31:34;;;;;;;5.20;1.45;;;18.40;1.00;;;;;;5094716;28;20216;-73
2022/09/16 10:34:02;;;;;;;3.50;1.00;;;18.60;1.00;;;;;;5095098;28;20696;-71
2022/09/16 10:36:33;;;;;;;5.60;1.00;;;18.80;1.00;;;;;;5106406;28;20204;-71
2022/09/16 10:39:03;;;;;;;5.45;1.02;;;18.70;1.00;;;;;;5114303;28;20205;-71
2022/09/16 10:41:34;;;;;;;2.25;0.77;;;18.00;1.00;;;;;;5114224;28;20216;-71
2022/09/16 10:44:02;;;;;;;3.65;1.00;;;18.00;1.00;;;;;;5113572;28;20204;-71
2022/09/16 10:46:30;;;;;;;3.25;0.95;;;17.70;1.00;;;;;;5115452;28;20193;-71
2022/09/16 10:49:01;;;;;;;5.47;1.30;;;17.60;1.00;;;;;;5107285;28;20567;-71
2022/09/16 10:51:30;;;;;;;5.00;1.05;;;17.30;1.00;;;;;;5103208;28;20210;-71
2022/09/16 10:53:58;;;;;;;3.97;1.30;;;17.30;1.00;;;;;;5094285;28;20674;-71
2022/09/16 10:56:28;;;;;;;4.35;0.85;;;17.20;1.00;;;;;;5093501;28;20208;-71
2022/09/16 10:59:03;;;;;;;8.10;1.05;;;17.10;1.00;;;;;;5094138;28;20248;-71
2022/09/16 11:01:40;;;;;;;4.00;0.98;;;17.00;1.00;;;;;;5094061;28;20215;-71
2022/09/16 11:04:39;;;;;;;6.20;1.10;;;16.80;1.00;;;;;;5111718;28;20205;-71
2022/09/16 11:07:18;;;;;;;2.75;0.80;;;17.30;1.00;;;;;;5083421;28;20197;-71
2022/09/16 11:09:54;;;;;;;6.68;1.10;;;18.10;1.00;;;;;;5076576;28;20647;-71
2022/09/16 11:12:52;;;;;;;6.25;1.20;;;18.50;1.00;;;;;;5092372;27;20200;-74
2022/09/16 11:15:31;;;;;;;7.95;1.42;;;18.80;1.00;;;;;;5124352;27;20193;-74
2022/09/16 11:18:13;;;;;;;5.28;1.17;;;19.00;1.00;;;;;;5089596;28;20220;-74
2022/09/16 11:21:00;;;;;;;3.42;1.05;;;18.90;1.00;;;;;;5080086;28;20241;-74
2022/09/16 11:23:41;;;;;;;7.68;1.00;;;18.30;1.00;;;;;;5094626;28;20208;-73
2022/09/16 11:26:13;;;;;;;2.95;0.95;;;18.20;1.00;;;;;;5093773;28;20209;-74
2022/09/16 11:29:13;;;;;;;4.15;1.30;;;18.00;1.00;;;;;;5094543;28;20202;-74
2022/09/16 11:31:50;;;;;;;6.63;1.23;;;18.50;1.00;;;;;;5093599;28;20221;-74
2022/09/16 11:34:32;;;;;;;7.80;1.45;;;18.50;1.00;;;;;;5094230;28;20201;-73
2022/09/16 11:37:09;;;;;;;4.85;1.20;;;18.10;1.00;;;;;;5075983;28;20337;-73
2022/09/16 11:39:59;;;;;;;4.60;1.23;;;17.90;1.00;;;;;;5093900;28;20205;-73
2022/09/16 11:42:33;;;;;;;3.47;0.98;;;18.10;1.00;;;;;;5114308;28;20212;-73
2022/09/16 11:45:18;;;;;;;4.13;1.05;;;18.50;1.00;;;;;;5095948;28;20209;-74
2022/09/16 11:48:07;;;;;;;3.65;1.05;;;18.70;1.00;;;;;;5114212;28;20643;-73
2022/09/16 11:50:45;;;;;;;3.33;0.80;;;18.80;1.00;;;;;;5094931;28;20209;-73
2022/09/16 11:53:47;;;;;;;4.43;0.98;;;19.60;1.00;;;;;;5113663;28;20216;-73
2022/09/16 11:56:18;;;;;;;3.35;0.90;;;19.50;1.00;;;;;;5113433;28;20204;-73
2022/09/16 11:58:48;;;;;;;2.88;0.77;;;19.90;1.00;;;;;;5113988;28;20299;-74
2022/09/16 12:01:31;;;;;;;3.33;0.80;;;19.40;1.00;;;;;;5113968;27;20197;-74
2022/09/16 12:04:07;;;;;;;4.40;1.20;;;19.00;1.00;;;;;;5095564;28;20197;-74
2022/09/16 12:06:40;;;;;;;2.78;0.80;;;18.70;1.00;;;;;;5097114;28;20212;-73
2022/09/16 12:09:13;;;;;;;3.63;0.85;;;18.60;1.00;;;;;;5093026;28;20202;-74
2022/09/16 12:11:44;;;;;;;7.72;1.33;;;17.50;99.90;;;;;;5092809;28;20212;-76
2022/09/16 12:14:16;;;;;;;3.13;0.82;;;15.90;99.90;;;;;;5093707;28;20216;-76
2022/09/16 12:16:47;;;;;;;5.20;1.92;;;15.00;1.00;;;;;;5093260;28;20563;-77
2022/09/16 12:19:21;;;;;;;5.88;1.15;;;14.70;1.00;;;;;;5093519;28;20577;-78
2022/09/16 12:21:51;;;;;;;5.32;1.13;;;14.60;1.00;;;;;;5092550;28;20202;-75
2022/09/16 12:24:24;;;;;;;3.53;1.10;;;15.20;1.00;;;;;;5093452;28;20209;-75
2022/09/16 12:26:56;;;;;;;5.32;1.45;;;16.10;95.00;;;;;;5092476;28;20204;-74
2022/09/16 12:29:30;;;;;;;6.45;2.80;;;16.30;1.00;;;;;;5093354;28;20198;-74
2022/09/16 12:32:04;;;;;;;5.30;1.40;;;16.50;99.90;;;;;;5093066;28;20662;-74
2022/09/16 12:34:38;;;;;;;6.15;1.80;;;16.80;99.90;;;;;;5075039;28;20227;-74
2022/09/16 12:37:23;;;;;;;5.15;1.58;;;17.10;1.00;;;;;;5074711;28;20243;-74
2022/09/16 12:39:50;;;;;;;3.53;0.95;;;17.40;1.00;;;;;;5092107;28;20205;-74
2022/09/16 12:42:52;;;;;;;5.80;1.60;;;17.40;99.90;;;;;;5092861;28;20194;-74
2022/09/16 12:45:54;;;;;;;3.67;1.23;;;17.90;1.00;;;;;;5092792;28;20204;-74
2022/09/16 12:48:45;;;;;;;5.82;1.10;;;17.80;1.00;;;;;;5116944;27;20212;-73
2022/09/16 12:51:44;;;;;;;6.95;1.80;;;17.90;99.90;;;;;;5098326;28;20209;-73
2022/09/16 12:54:38;;;;;;;4.25;1.02;;;18.00;99.90;;;;;;5077106;28;20212;-73
2022/09/16 12:57:22;;;;;;;5.00;1.25;;;18.00;1.00;;;;;;5073944;28;20208;-73
2022/09/16 13:00:10;;;;;;;3.47;0.70;;;18.00;1.00;;;;;;5092875;28;20205;-73
2022/09/16 13:02:40;;;;;;;1.85;0.80;;;18.30;99.90;;;;;;5092417;28;20583;-73
2022/09/16 13:05:16;;;;;;;5.80;1.10;;;17.90;99.90;;;;;;5092796;28;20208;-73
2022/09/16 13:07:50;;;;;;;3.88;0.88;;;18.10;99.90;;;;;;5092501;28;20209;-73
2022/09/16 13:10:20;;;;;;;1.95;0.70;;;18.00;1.00;;;;;;5092391;28;20258;-73
2022/09/16 13:12:50;;;;;;;2.90;0.75;;;18.20;1.00;;;;;;5092755;28;20213;-73
2022/09/16 13:15:26;;;;;;;5.88;1.30;;;18.50;1.00;;;;;;5091776;28;20214;-74
2022/09/16 13:17:53;;;;;;;6.40;1.33;;;18.60;1.00;;;;;;5074629;28;20212;-73